Time;durP1;ratioP1;P1;durP2;ratioP2;P2;SDS_P1;SDS_P2;PMS_P1;PMS_P2;Temp;Humidity;BMP_temperature;BMP_pressure;BME280_temperature;BME280_humidity;BME280_pressure;Samples;Min_cycle;Max_cycle;Signal;HPM_P1;HPM_P2
2022/08/29 00:02:22;;;;;;;14.43;9.73;;;;;;;18.36;67.66;99274.28;5243844;28;20048;-80
2022/08/29 00:05:12;;;;;;;14.23;9.73;;;;;;;18.31;67.49;99259.56;5264300;28;20079;-80
2022/08/29 00:08:04;;;;;;;15.52;8.73;;;;;;;18.39;67.27;99277.41;5249842;28;20060;-78
2022/08/29 00:10:54;;;;;;;13.38;9.70;;;;;;;18.25;67.66;99267.53;5267788;28;20242;-78
2022/08/29 00:13:44;;;;;;;14.52;10.15;;;;;;;18.21;67.73;99283.19;5262189;28;20048;-80
2022/08/29 00:16:34;;;;;;;13.77;9.05;;;;;;;18.11;67.60;99279.09;5247848;28;20088;-80
2022/08/29 00:19:24;;;;;;;12.35;9.25;;;;;;;18.08;68.01;99294.56;5249349;28;20053;-79
2022/08/29 00:22:15;;;;;;;17.08;9.95;;;;;;;18.22;68.38;99292.06;5247376;28;20418;-79
2022/08/29 00:25:07;;;;;;;17.35;9.95;;;;;;;17.97;68.51;99303.06;5247890;28;20052;-80
2022/08/29 00:27:58;;;;;;;16.02;10.43;;;;;;;18.12;67.90;99281.59;5248018;28;20064;-80
2022/08/29 00:30:48;;;;;;;18.50;10.00;;;;;;;17.94;68.05;99275.75;5248007;28;20048;-80
2022/08/29 00:33:39;;;;;;;17.33;11.50;;;;;;;17.92;68.75;99288.53;5249181;28;20463;-80
2022/08/29 00:36:29;;;;;;;23.48;11.05;;;;;;;17.82;69.01;99288.81;5247995;28;20076;-80
2022/08/29 00:39:20;;;;;;;19.23;11.20;;;;;;;17.93;68.77;99284.84;5247910;28;20095;-79
2022/08/29 00:42:12;;;;;;;18.83;11.35;;;;;;;18.07;67.70;99287.50;5248936;28;20048;-79
2022/08/29 00:45:06;;;;;;;14.73;11.23;;;;;;;17.96;68.71;99306.75;5248714;28;20052;-79
2022/08/29 00:48:07;;;;;;;16.73;10.90;;;;;;;17.84;68.25;99308.22;5206254;28;20044;-80
2022/08/29 00:51:02;;;;;;;15.90;10.23;;;;;;;17.78;68.61;99295.53;5247801;28;20848;-80
2022/08/29 00:53:59;;;;;;;16.35;10.73;;;;;;;17.69;69.45;99288.56;5249284;28;20442;-80
2022/08/29 00:56:52;;;;;;;17.35;10.93;;;;;;;17.85;68.97;99299.19;5248198;28;20202;-80
2022/08/29 00:59:43;;;;;;;16.45;10.32;;;;;;;17.63;68.64;99300.84;5229116;28;20530;-80
2022/08/29 01:02:33;;;;;;;13.15;9.68;;;;;;;17.56;69.58;99294.56;5218764;28;20056;-79
2022/08/29 01:05:29;;;;;;;15.20;10.00;;;;;;;17.85;69.19;99304.53;5231895;28;20053;-80
2022/08/29 01:08:19;;;;;;;24.25;11.00;;;;;;;17.75;68.86;99294.03;5248235;28;20056;-79
2022/08/29 01:14:24;;;;;;;13.93;10.02;;;;;;;17.37;69.66;99269.91;5248248;28;20207;-79
2022/08/29 01:17:19;;;;;;;13.90;10.25;;;;;;;17.66;69.16;99305.03;5233949;28;20059;-80
2022/08/29 01:20:43;;;;;;;19.27;10.43;;;;;;;17.76;68.96;99314.50;5249331;28;20127;-80
2022/08/29 01:24:06;;;;;;;20.10;10.25;;;;;;;17.53;68.66;99294.91;5248547;28;20405;-79
2022/08/29 01:26:59;;;;;;;14.55;9.55;;;;;;;17.41;68.11;99299.84;5248668;28;20139;-80
2022/08/29 01:29:49;;;;;;;15.13;10.02;;;;;;;17.37;68.35;99293.19;5234356;28;20056;-80
2022/08/29 01:32:40;;;;;;;16.23;10.32;;;;;;;17.49;68.82;99283.72;5261969;28;20238;-80
2022/08/29 01:35:32;;;;;;;14.07;9.15;;;;;;;17.52;68.64;99303.97;5247960;28;20091;-79
2022/08/29 01:38:28;;;;;;;14.77;9.27;;;;;;;17.33;68.77;99295.41;5248840;28;20090;-80
2022/08/29 01:41:21;;;;;;;15.07;9.35;;;;;;;17.58;68.46;99322.84;5247063;28;20041;-80
2022/08/29 01:44:17;;;;;;;14.93;8.68;;;;;;;17.55;68.51;99311.66;5248346;28;20175;-80
2022/08/29 01:47:08;;;;;;;17.80;9.18;;;;;;;17.51;68.81;99315.69;5247647;28;20517;-79
2022/08/29 01:50:00;;;;;;;14.68;9.27;;;;;;;17.31;69.16;99286.69;5247240;28;20049;-80
2022/08/29 01:52:50;;;;;;;13.48;9.15;;;;;;;17.51;68.44;99296.94;5248793;28;20076;-81
2022/08/29 01:55:41;;;;;;;13.70;9.13;;;;;;;17.52;68.74;99317.38;5250441;28;20528;-78
2022/08/29 01:58:31;;;;;;;14.63;8.60;;;;;;;17.31;68.22;99304.63;5247934;28;20059;-80
2022/08/29 02:01:26;;;;;;;13.23;8.68;;;;;;;17.37;68.88;99320.84;5261866;28;20072;-80
2022/08/29 02:04:16;;;;;;;18.17;9.00;;;;;;;17.40;68.64;99318.81;5248578;28;20056;-79
2022/08/29 02:07:07;;;;;;;17.65;9.07;;;;;;;16.95;69.54;99280.28;5247539;28;20076;-80
2022/08/29 02:10:03;;;;;;;12.18;8.13;;;;;;;17.13;68.48;99307.63;5249804;28;20110;-80
2022/08/29 02:12:53;;;;;;;12.65;9.07;;;;;;;17.31;68.78;99321.53;5248192;28;20049;-80
2022/08/29 02:15:43;;;;;;;12.50;8.77;;;;;;;17.32;68.64;99320.56;5247548;28;20052;-81
2022/08/29 02:18:34;;;;;;;16.58;9.30;;;;;;;17.27;68.70;99319.41;5247591;28;20060;-78
2022/08/29 02:21:28;;;;;;;11.68;8.52;;;;;;;17.17;68.28;99305.41;5273434;28;20057;-78
2022/08/29 02:24:18;;;;;;;16.30;8.77;;;;;;;17.25;68.63;99319.59;5246703;28;20430;-79
2022/08/29 02:27:14;;;;;;;11.68;8.95;;;;;;;17.25;69.02;99324.97;5232799;28;20057;-79
2022/08/29 02:30:05;;;;;;;13.82;8.07;;;;;;;17.15;68.43;99324.34;5246991;28;20525;-79
2022/08/29 02:32:55;;;;;;;14.63;8.32;;;;;;;16.93;68.98;99333.22;5247383;28;20119;-79
2022/08/29 02:35:47;;;;;;;14.82;8.88;;;;;;;16.93;69.42;99330.53;5250901;28;20099;-79
2022/08/29 02:38:38;;;;;;;12.38;8.60;;;;;;;17.01;68.86;99330.47;5250933;28;20044;-80
2022/08/29 02:41:28;;;;;;;12.60;9.27;;;;;;;17.10;68.81;99318.69;5250423;28;20105;-78
2022/08/29 02:44:19;;;;;;;12.77;8.38;;;;;;;17.14;69.07;99302.06;5250131;28;20048;-80
2022/08/29 02:47:09;;;;;;;16.50;8.57;;;;;;;17.16;69.03;99314.47;5250667;28;20190;-80
2022/08/29 02:50:00;;;;;;;14.13;8.50;;;;;;;16.87;69.08;99297.25;5242893;28;20056;-79
2022/08/29 02:52:51;;;;;;;16.23;9.00;;;;;;;16.94;68.89;99324.16;5229891;28;20051;-79
2022/08/29 02:55:41;;;;;;;10.48;8.75;;;;;;;17.05;69.55;99319.25;5250006;28;20058;-79
2022/08/29 02:58:33;;;;;;;17.77;9.75;;;;;;;16.92;69.26;99308.28;5251347;28;20055;-78
2022/08/29 03:01:24;;;;;;;15.90;8.82;;;;;;;16.92;69.78;99310.97;5250572;28;20111;-79
2022/08/29 03:04:15;;;;;;;15.38;8.95;;;;;;;16.65;70.18;99312.22;5264234;28;20052;-79
2022/08/29 03:07:05;;;;;;;12.13;8.73;;;;;;;16.73;69.11;99322.06;5251101;28;20522;-80
2022/08/29 03:09:56;;;;;;;17.83;8.55;;;;;;;16.88;69.24;99331.03;5228853;28;20545;-78
2022/08/29 03:12:47;;;;;;;19.48;9.07;;;;;;;16.77;69.60;99310.84;5241456;28;20059;-79
2022/08/29 03:15:38;;;;;;;19.25;8.55;;;;;;;16.83;69.90;99326.22;5251660;28;20053;-79
2022/08/29 03:18:29;;;;;;;15.05;9.32;;;;;;;16.97;69.62;99321.97;5250105;28;20059;-80
2022/08/29 03:21:22;;;;;;;15.50;9.60;;;;;;;16.88;69.36;99318.47;5250773;28;20143;-79
2022/08/29 03:24:13;;;;;;;17.05;9.48;;;;;;;16.72;69.45;99299.81;5251678;28;20067;-80
2022/08/29 03:27:03;;;;;;;14.75;9.30;;;;;;;16.78;69.35;99296.44;5251042;28;20052;-81
2022/08/29 03:29:54;;;;;;;17.42;9.65;;;;;;;16.59;69.69;99299.56;5233956;28;20049;-80
2022/08/29 03:32:45;;;;;;;14.75;9.30;;;;;;;16.62;69.37;99309.88;5241582;28;20110;-80
2022/08/29 03:35:35;;;;;;;17.70;8.88;;;;;;;16.53;69.70;99301.09;5251249;28;20135;-79
2022/08/29 03:38:25;;;;;;;16.63;10.02;;;;;;;16.57;69.08;99309.59;5234962;28;20211;-80
2022/08/29 03:41:25;;;;;;;13.95;9.02;;;;;;;16.39;70.64;99277.72;5248827;28;20138;-79
2022/08/29 03:44:16;;;;;;;18.05;8.90;;;;;;;16.45;69.92;99309.97;5249073;28;20052;-79
2022/08/29 03:47:07;;;;;;;16.15;9.55;;;;;;;16.71;70.00;99321.41;5250561;28;20117;-78
2022/08/29 03:49:57;;;;;;;13.60;9.20;;;;;;;16.51;69.50;99315.63;5249389;28;20052;-80
2022/08/29 03:52:47;;;;;;;15.93;9.93;;;;;;;16.62;69.70;99318.78;5250092;28;20051;-79
2022/08/29 03:55:38;;;;;;;13.25;9.30;;;;;;;16.62;69.60;99312.56;5250662;28;20585;-79
2022/08/29 03:58:28;;;;;;;18.98;9.88;;;;;;;16.58;69.69;99327.31;5249862;28;20055;-80
2022/08/29 04:01:21;;;;;;;17.88;9.30;;;;;;;16.50;69.93;99327.38;5249051;28;20051;-80
2022/08/29 04:05:05;;;;;;;16.60;9.68;;;;;;;16.60;69.52;99328.00;5251252;28;20193;-80
2022/08/29 04:07:21;;;;;;;18.80;11.18;;;;;;;16.44;69.35;99312.81;5249744;28;20056;-80
2022/08/29 04:10:17;;;;;;;13.68;8.95;;;;;;;16.35;69.41;99328.06;5252328;28;20060;-79
2022/08/29 04:13:08;;;;;;;15.82;9.30;;;;;;;16.31;70.18;99321.41;5239978;28;20049;-80
2022/08/29 04:15:58;;;;;;;14.90;9.77;;;;;;;16.31;70.03;99316.03;5250874;28;20518;-79
2022/08/29 04:18:49;;;;;;;18.38;10.15;;;;;;;16.10;70.66;99315.78;5251250;28;20055;-79
2022/08/29 04:21:40;;;;;;;17.00;9.57;;;;;;;16.18;69.98;99324.63;5249001;28;20072;-79
2022/08/29 04:24:34;;;;;;;15.05;9.85;;;;;;;16.15;69.65;99318.78;5262736;28;20190;-79
2022/08/29 04:27:24;;;;;;;21.10;9.52;;;;;;;16.20;70.61;99345.88;5227702;28;20745;-79
2022/08/29 04:30:18;;;;;;;18.42;10.20;;;;;;;16.31;70.66;99348.16;5242872;28;20059;-79
2022/08/29 04:33:09;;;;;;;15.13;9.60;;;;;;;16.48;69.80;99348.94;5233420;28;20056;-81
2022/08/29 04:36:12;;;;;;;14.52;9.43;;;;;;;16.45;69.96;99339.41;5249791;28;20384;-80
2022/08/29 04:39:04;;;;;;;18.25;9.93;;;;;;;16.35;70.25;99338.78;5238456;28;20103;-79
2022/08/29 04:41:55;;;;;;;22.50;10.38;;;;;;;16.21;70.41;99334.16;5247734;28;20052;-79
2022/08/29 04:44:46;;;;;;;18.95;10.50;;;;;;;16.38;70.00;99342.97;5247013;28;20056;-79
2022/08/29 04:47:37;;;;;;;14.45;9.93;;;;;;;16.11;70.30;99354.91;5241366;28;20059;-79
2022/08/29 04:50:28;;;;;;;17.75;9.88;;;;;;;16.01;70.79;99344.38;5262446;28;20135;-78
2022/08/29 04:53:19;;;;;;;21.23;10.60;;;;;;;16.29;70.54;99339.50;5242911;28;20071;-78
2022/08/29 04:56:11;;;;;;;20.73;10.60;;;;;;;16.07;70.32;99346.38;5247011;28;20064;-78
2022/08/29 04:59:01;;;;;;;14.98;9.55;;;;;;;15.97;71.10;99332.38;5246132;28;20061;-79
2022/08/29 05:01:51;;;;;;;16.92;10.00;;;;;;;16.02;70.81;99323.81;5246298;28;20074;-79
2022/08/29 05:04:42;;;;;;;19.67;9.85;;;;;;;16.18;70.44;99345.19;5248736;28;20076;-79
2022/08/29 05:07:32;;;;;;;13.82;9.68;;;;;;;16.07;70.71;99357.09;5261722;28;20052;-78
2022/08/29 05:10:27;;;;;;;18.60;9.95;;;;;;;16.06;70.94;99338.53;5247091;28;20067;-79
2022/08/29 05:13:18;;;;;;;16.02;10.95;;;;;;;16.57;70.08;99352.44;5261271;28;20048;-79
2022/08/29 05:16:12;;;;;;;18.27;10.07;;;;;;;16.31;70.79;99358.88;5261030;28;20414;-79
2022/08/29 05:19:05;;;;;;;18.58;10.80;;;;;;;16.25;70.39;99380.94;5247913;28;20052;-80
2022/08/29 05:21:56;;;;;;;16.83;10.17;;;;;;;16.18;69.75;99370.09;5249134;28;20190;-79
2022/08/29 05:24:48;;;;;;;18.60;10.55;;;;;;;16.15;69.84;99365.09;5248700;28;20056;-79
2022/08/29 05:27:39;;;;;;;17.95;11.05;;;;;;;16.18;70.22;99353.22;5262044;28;20047;-80
2022/08/29 05:30:30;;;;;;;19.85;11.70;;;;;;;16.35;71.14;99373.56;5247487;28;20079;-79
2022/08/29 05:33:24;;;;;;;;;;;;;;;16.43;71.82;99378.91;5249000;28;20052;-80
2022/08/29 05:36:14;;;;;;;21.88;11.60;;;;;;;16.47;71.70;99373.22;5232250;28;19927;-79
2022/08/29 05:39:05;;;;;;;23.33;12.90;;;;;;;16.50;72.31;99362.16;5221472;28;20080;-79
2022/08/29 05:41:59;;;;;;;20.55;12.25;;;;;;;16.55;73.65;99381.19;5246365;28;20514;-80
2022/08/29 05:44:50;;;;;;;22.95;13.43;;;;;;;16.73;73.07;99375.63;5246862;28;20071;-79
2022/08/29 05:47:42;;;;;;;21.35;12.00;;;;;;;16.81;72.71;99386.31;5264347;28;20043;-82
2022/08/29 05:50:42;;;;;;;20.90;13.27;;;;;;;16.51;72.45;99327.19;5253747;28;20803;-81
2022/08/29 05:53:33;;;;;;;22.60;11.73;;;;;;;16.70;71.65;99351.88;5243049;28;20123;-82
2022/08/29 05:56:25;;;;;;;22.98;12.63;;;;;;;16.59;73.13;99327.16;5248230;28;20055;-81
2022/08/29 05:59:17;;;;;;;20.08;11.93;;;;;;;16.81;72.28;99343.47;5220523;28;20529;-81
2022/08/29 06:02:09;;;;;;;21.42;11.85;;;;;;;16.94;71.07;99364.34;5258558;28;20095;-82
2022/08/29 06:04:59;;;;;;;17.58;10.63;;;;;;;16.95;70.57;99361.47;5247360;28;22170;-82
2022/08/29 06:07:50;;;;;;;19.60;10.50;;;;;;;16.95;70.23;99355.28;5248320;28;20071;-81
2022/08/29 06:10:42;;;;;;;20.98;9.65;;;;;;;17.16;70.30;99409.09;5262350;28;20043;-81
2022/08/29 06:13:32;;;;;;;17.58;8.90;;;;;;;17.30;68.35;99408.34;5267577;28;20063;-81
2022/08/29 06:16:24;;;;;;;19.75;8.50;;;;;;;17.34;67.67;99390.03;5240764;28;20526;-81
2022/08/29 06:19:18;;;;;;;14.13;8.18;;;;;;;17.19;67.50;99368.53;5255096;28;20138;-82
2022/08/29 06:22:09;;;;;;;15.20;8.30;;;;;;;17.09;66.13;99360.72;5249624;28;20174;-81
2022/08/29 06:25:00;;;;;;;13.85;7.63;;;;;;;17.24;66.48;99366.16;5244885;28;20071;-81
2022/08/29 06:28:11;;;;;;;12.48;7.97;;;;;;;17.68;66.48;99421.84;5251520;28;20117;-82
2022/08/29 06:31:25;;;;;;;13.32;7.40;;;;;;;17.60;66.19;99414.66;5254942;28;20063;-82
2022/08/29 06:34:20;;;;;;;17.58;8.30;;;;;;;17.73;66.88;99424.78;5253794;28;20056;-81
2022/08/29 06:37:13;;;;;;;13.05;7.75;;;;;;;17.53;65.28;99380.72;5267062;28;20200;-81
2022/08/29 06:40:04;;;;;;;14.80;7.80;;;;;;;17.64;65.25;99377.59;5239204;28;20063;-81
2022/08/29 06:42:57;;;;;;;15.70;7.28;;;;;;;17.47;64.33;99376.06;5248018;28;20041;-81
2022/08/29 06:45:48;;;;;;;17.98;8.02;;;;;;;17.37;66.14;99371.75;5235961;28;20060;-81
2022/08/29 06:48:38;;;;;;;16.60;8.40;;;;;;;17.63;65.41;99380.47;5237922;28;20136;-81
2022/08/29 06:51:31;;;;;;;18.48;7.80;;;;;;;17.78;64.57;99360.75;5266030;28;20055;-81
2022/08/29 06:54:23;;;;;;;11.98;7.57;;;;;;;18.35;65.49;99414.91;5251905;28;20091;-80
2022/08/29 06:57:17;;;;;;;18.00;7.57;;;;;;;17.93;64.83;99347.38;5279275;28;20517;-81
2022/08/29 07:00:11;;;;;;;15.13;8.18;;;;;;;18.45;63.93;99412.78;5264562;28;20055;-82
2022/08/29 07:03:12;;;;;;;16.40;7.68;;;;;;;18.43;64.02;99371.84;5254466;28;20167;-81
2022/08/29 07:06:03;;;;;;;18.38;7.47;;;;;;;18.43;62.84;99367.31;5224132;28;20084;-80
2022/08/29 07:08:53;;;;;;;17.90;7.30;;;;;;;18.57;61.92;99379.06;5260693;28;20048;-81
2022/08/29 07:11:45;;;;;;;15.57;7.22;;;;;;;18.84;62.05;99412.53;5258074;28;20100;-81
2022/08/29 07:14:36;;;;;;;13.35;7.03;;;;;;;19.07;61.66;99428.50;5265450;28;20044;-81
2022/08/29 07:17:30;;;;;;;13.00;7.07;;;;;;;19.10;61.56;99428.13;5259136;28;20143;-81
2022/08/29 07:20:20;;;;;;;14.05;7.07;;;;;;;19.44;60.60;99391.72;5254937;28;20060;-81
2022/08/29 07:23:10;;;;;;;15.23;6.93;;;;;;;19.85;60.34;99394.59;5255265;28;20054;-81
2022/08/29 07:26:32;;;;;;;15.68;6.82;;;;;;;19.93;57.31;99369.41;5255689;28;20510;-83
2022/08/29 07:29:22;;;;;;;17.75;7.10;;;;;;;20.35;57.63;99410.72;5267456;28;20053;-81
2022/08/29 07:32:13;;;;;;;15.75;6.97;;;;;;;20.62;56.86;99391.03;5254045;28;20075;-81
2022/08/29 07:35:03;;;;;;;20.88;6.50;;;;;;;20.29;56.78;99379.19;5252498;28;20059;-81
2022/08/29 07:37:59;;;;;;;13.65;6.47;;;;;;;20.99;55.85;99428.50;5250169;28;20052;-82
2022/08/29 07:41:01;;;;;;;14.85;6.00;;;;;;;22.20;52.99;99439.44;5250031;28;20110;-81
2022/08/29 07:43:51;;;;;;;12.93;5.57;;;;;;;22.99;51.62;99397.91;5261120;28;20055;-81
2022/08/29 07:46:42;;;;;;;15.25;6.25;;;;;;;23.77;49.66;99405.81;5251803;28;20075;-81
2022/08/29 07:49:33;;;;;;;10.05;5.80;;;;;;;24.30;48.51;99429.75;5253077;28;20048;-81
2022/08/29 07:52:30;;;;;;;13.77;5.30;;;;;;;22.94;50.33;99405.81;5239872;28;20051;-81
2022/08/29 07:55:20;;;;;;;13.07;5.45;;;;;;;24.17;48.28;99418.22;5250569;28;20049;-81
2022/08/29 07:58:11;;;;;;;11.82;5.20;;;;;;;23.31;48.79;99384.44;5245784;28;20045;-82
2022/08/29 08:01:02;;;;;;;9.95;4.93;;;;;;;23.25;48.92;99388.84;5267461;28;20063;-82
2022/08/29 08:03:53;;;;;;;14.95;5.85;;;;;;;24.12;48.05;99383.66;5251724;28;20527;-82
2022/08/29 08:06:46;;;;;;;10.63;4.55;;;;;;;24.81;45.22;99371.69;5247874;28;20060;-82
2022/08/29 08:09:37;;;;;;;12.95;4.53;;;;;;;25.35;46.86;99403.59;5246820;28;20090;-81
2022/08/29 08:12:28;;;;;;;10.65;5.53;;;;;;;25.49;43.84;99394.19;5266315;28;20040;-82
2022/08/29 08:15:20;;;;;;;11.02;4.93;;;;;;;26.42;42.63;99395.41;5238040;28;20062;-80
2022/08/29 08:18:11;;;;;;;14.63;4.95;;;;;;;26.25;42.54;99434.19;5251982;28;20049;-81
2022/08/29 08:21:02;;;;;;;11.50;4.50;;;;;;;26.96;42.74;99398.00;5252061;28;20056;-82
2022/08/29 08:23:53;;;;;;;13.18;5.28;;;;;;;26.01;42.36;99437.94;5250537;28;20083;-82
2022/08/29 08:26:43;;;;;;;9.65;4.22;;;;;;;26.52;41.50;99420.16;5268804;28;20079;-79
2022/08/29 08:29:34;;;;;;;7.78;4.25;;;;;;;26.67;40.45;99436.81;5259611;28;20099;-82
2022/08/29 08:32:24;;;;;;;10.20;4.47;;;;;;;27.67;42.03;99423.06;5256521;28;20056;-80
2022/08/29 08:35:21;;;;;;;13.73;4.97;;;;;;;27.36;39.96;99415.16;5243897;28;20060;-80
2022/08/29 08:38:12;;;;;;;9.35;4.13;;;;;;;28.33;39.78;99437.81;5257647;28;20056;-80
2022/08/29 08:41:17;;;;;;;10.40;5.10;;;;;;;28.85;38.23;99440.25;5270827;28;20049;-82
2022/08/29 08:44:38;;;;;;;8.63;5.07;;;;;;;28.84;38.17;99429.56;5254750;28;20055;-80
2022/08/29 08:47:38;;;;;;;21.35;4.90;;;;;;;29.01;37.14;99405.81;5231378;28;20048;-81
2022/08/29 08:50:52;;;;;;;12.05;5.05;;;;;;;28.76;37.63;99414.47;5255619;28;20569;-79
2022/08/29 08:53:52;;;;;;;12.38;5.82;;;;;;;28.28;40.39;99435.84;5255779;28;20675;-83
2022/08/29 08:56:50;;;;;;;13.73;5.30;;;;;;;29.30;38.80;99422.78;5239049;28;20056;-85
2022/08/29 08:59:45;;;;;;;14.50;5.57;;;;;;;29.42;37.65;99420.75;5264540;28;20060;-82
2022/08/29 09:02:49;;;;;;;10.88;4.90;;;;;;;29.11;38.12;99430.50;5251104;28;20126;-81
2022/08/29 09:05:59;;;;;;;15.05;5.22;;;;;;;29.52;38.33;99428.22;5237651;28;20049;-80
2022/08/29 09:09:08;;;;;;;16.60;5.35;;;;;;;30.07;37.00;99413.47;5251079;28;20163;-83
2022/08/29 09:12:10;;;;;;;10.77;4.60;;;;;;;28.70;38.51;99432.66;5258484;28;20063;-82
2022/08/29 09:15:16;;;;;;;10.80;4.40;;;;;;;29.05;39.73;99415.13;5264719;28;20052;-81
2022/08/29 09:18:22;;;;;;;13.80;5.10;;;;;;;29.25;37.71;99425.47;5273641;28;20051;-83
2022/08/29 09:21:18;;;;;;;12.85;4.88;;;;;;;29.37;38.14;99417.13;5251110;28;20049;-82
2022/08/29 09:24:37;;;;;;;11.07;4.90;;;;;;;30.07;36.93;99418.94;5253235;28;20115;-81
2022/08/29 09:27:30;;;;;;;11.40;5.30;;;;;;;30.75;35.82;99435.53;5251514;28;20052;-84
2022/08/29 09:30:24;;;;;;;9.25;5.15;;;;;;;29.80;36.91;99438.09;5251757;28;20051;-82
2022/08/29 09:33:15;;;;;;;9.35;4.75;;;;;;;30.34;36.12;99429.00;5236125;28;20058;-82
2022/08/29 09:36:12;;;;;;;10.68;4.88;;;;;;;30.57;38.34;99405.88;5253226;28;20078;-83
2022/08/29 09:39:12;;;;;;;9.98;4.82;;;;;;;30.81;36.29;99423.56;5225895;28;20162;-82
2022/08/29 09:42:12;;;;;;;9.27;5.00;;;;;;;30.17;37.49;99432.69;5266477;28;20059;-82
2022/08/29 09:45:16;;;;;;;11.70;4.90;;;;;;;29.68;39.80;99426.50;5262584;28;20102;-80
2022/08/29 09:48:13;;;;;;;13.60;5.00;;;;;;;30.03;37.15;99423.25;5252502;28;20071;-84
2022/08/29 09:51:23;;;;;;;12.45;4.78;;;;;;;30.31;36.69;99422.13;5246940;28;20308;-80
2022/08/29 09:54:15;;;;;;;12.25;4.53;;;;;;;29.56;38.45;99414.88;5243216;28;20088;-80
2022/08/29 09:57:27;;;;;;;11.77;5.05;;;;;;;29.67;37.08;99398.34;5242891;28;20061;-83
2022/08/29 10:00:25;;;;;;;10.07;4.80;;;;;;;30.58;35.55;99416.56;5244710;28;20052;-81
2022/08/29 10:03:21;;;;;;;11.43;4.03;;;;;;;30.81;37.12;99412.59;5235428;28;20149;-83
2022/08/29 10:06:21;;;;;;;10.98;4.15;;;;;;;29.94;37.05;99408.44;5265929;28;20135;-82
2022/08/29 10:09:26;;;;;;;8.63;4.10;;;;;;;30.08;38.78;99412.34;5266128;28;20063;-82
2022/08/29 10:12:29;;;;;;;8.20;4.65;;;;;;;30.10;36.78;99398.41;5263594;28;20087;-81
2022/08/29 10:15:27;;;;;;;9.10;4.30;;;;;;;30.09;36.51;99361.22;5268597;28;20052;-83
2022/08/29 10:18:47;;;;;;;8.82;3.92;;;;;;;29.82;38.10;99378.53;5265713;28;20072;-84
2022/08/29 10:21:52;;;;;;;10.90;4.00;;;;;;;29.87;37.85;99410.56;5263421;28;20045;-83
2022/08/29 10:25:08;;;;;;;7.55;4.28;;;;;;;30.96;37.92;99406.38;5246167;28;20048;-83
2022/08/29 10:28:12;;;;;;;8.13;3.95;;;;;;;29.89;37.14;99411.91;5246787;28;20665;-83
2022/08/29 10:31:13;;;;;;;6.32;4.00;;;;;;;29.95;38.30;99389.00;5260286;28;20056;-81
2022/08/29 10:34:26;;;;;;;8.70;3.45;;;;;;;29.65;40.88;99416.09;5247546;28;20528;-83
2022/08/29 10:37:42;;;;;;;9.13;3.75;;;;;;;29.90;37.32;99399.94;5260554;28;20054;-82
2022/08/29 10:40:51;;;;;;;5.82;3.67;;;;;;;30.00;36.49;99406.53;5218326;28;20122;-83
2022/08/29 10:44:06;;;;;;;9.80;3.85;;;;;;;30.39;37.97;99377.84;5248810;28;20091;-80
2022/08/29 10:47:23;;;;;;;15.38;4.70;;;;;;;29.92;37.13;99392.28;5261017;28;20182;-82
2022/08/29 10:50:35;;;;;;;7.03;3.80;;;;;;;29.89;37.46;99402.91;5248643;28;20052;-82
2022/08/29 10:53:45;;;;;;;8.85;4.25;;;;;;;29.76;36.23;99390.50;5250149;28;20047;-84
2022/08/29 10:56:43;;;;;;;6.95;3.80;;;;;;;29.69;37.13;99398.09;5238996;28;20098;-83
2022/08/29 11:00:01;;;;;;;10.68;4.07;;;;;;;29.48;37.55;99394.31;5258045;28;20063;-81
2022/08/29 11:03:07;;;;;;;11.27;4.20;;;;;;;29.65;35.83;99378.66;5255130;28;20419;-80
2022/08/29 11:06:03;;;;;;;10.27;4.18;;;;;;;29.76;37.54;99368.63;5251597;28;20048;-83
2022/08/29 11:09:13;;;;;;;6.65;3.90;;;;;;;29.78;37.79;99371.13;5252753;28;20064;-84
2022/08/29 11:12:10;;;;;;;11.50;4.05;;;;;;;29.29;37.05;99374.72;5251057;28;20553;-82
2022/08/29 11:15:35;;;;;;;7.00;3.33;;;;;;;28.95;38.77;99379.50;5252390;28;20197;-84
2022/08/29 11:18:38;;;;;;;7.97;4.00;;;;;;;30.20;37.62;99354.78;5255485;28;20135;-82
2022/08/29 11:21:39;;;;;;;6.82;3.38;;;;;;;30.64;36.28;99365.41;5250829;28;20049;-80
2022/08/29 11:24:32;;;;;;;5.13;3.38;;;;;;;30.50;36.22;99358.75;5249759;28;20047;-84
2022/08/29 11:27:40;;;;;;;6.43;3.60;;;;;;;29.23;37.62;99360.16;5265972;28;20118;-82
2022/08/29 11:30:35;;;;;;;8.95;3.58;;;;;;;29.68;36.43;99367.19;5278443;28;20125;-82
2022/08/29 11:33:32;;;;;;;6.30;3.90;;;;;;;30.38;35.12;99348.03;5236060;28;20067;-81
2022/08/29 11:36:39;;;;;;;7.88;3.75;;;;;;;29.67;35.54;99345.63;5249853;28;20498;-81
2022/08/29 11:39:53;;;;;;;5.32;3.60;;;;;;;29.94;35.96;99357.31;5249881;28;20052;-81
2022/08/29 11:42:47;;;;;;;5.80;3.65;;;;;;;29.48;36.21;99326.81;5249620;28;20126;-81
2022/08/29 11:45:43;;;;;;;6.05;3.58;;;;;;;29.63;37.33;99323.41;5250354;28;20056;-81
2022/08/29 11:48:37;;;;;;;7.28;4.32;;;;;;;29.97;35.99;99334.09;5248965;28;20083;-80
2022/08/29 11:51:36;;;;;;;7.53;3.88;;;;;;;30.07;35.47;99323.22;5256469;28;20413;-82
2022/08/29 11:54:35;;;;;;;7.53;3.60;;;;;;;30.26;35.85;99342.75;5249799;28;20071;-80
2022/08/29 11:57:30;;;;;;;7.40;3.80;;;;;;;29.15;37.21;99335.25;5249320;28;20056;-82
2022/08/29 12:00:34;;;;;;;6.30;3.70;;;;;;;29.86;35.12;99340.53;5249051;28;20051;-81
2022/08/29 12:03:34;;;;;;;8.43;3.75;;;;;;;30.15;35.44;99335.56;5248646;28;20048;-82
2022/08/29 12:06:31;;;;;;;5.55;3.83;;;;;;;30.04;35.33;99331.94;5232313;28;20079;-81
2022/08/29 12:09:44;;;;;;;8.43;3.85;;;;;;;30.37;35.95;99330.81;5243396;28;20127;-82
2022/08/29 12:12:47;;;;;;;7.70;3.80;;;;;;;30.38;34.77;99318.75;5242991;28;20059;-80
2022/08/29 12:15:50;;;;;;;6.80;3.83;;;;;;;29.93;34.57;99331.06;5249701;28;20044;-80
2022/08/29 12:18:43;;;;;;;5.32;3.63;;;;;;;30.21;34.29;99331.00;5248900;28;20055;-82
2022/08/29 12:21:37;;;;;;;7.05;3.88;;;;;;;29.55;34.33;99334.81;5247994;28;20063;-80
2022/08/29 12:24:43;;;;;;;8.43;3.58;;;;;;;29.48;36.03;99321.38;5252272;28;20548;-83
2022/08/29 12:27:59;;;;;;;7.43;3.30;;;;;;;29.68;34.71;99322.66;5250884;28;20067;-81
2022/08/29 12:31:03;;;;;;;6.07;3.27;;;;;;;29.31;34.62;99322.56;5247959;28;20063;-80
2022/08/29 12:34:06;;;;;;;5.45;3.53;;;;;;;29.86;34.40;99324.97;5248318;28;20190;-81
2022/08/29 12:37:09;;;;;;;6.93;3.97;;;;;;;29.60;35.54;99293.88;5226941;28;20107;-80
2022/08/29 12:40:17;;;;;;;6.57;3.53;;;;;;;29.77;35.66;99306.59;5227913;28;20052;-80
2022/08/29 12:43:21;;;;;;;7.10;3.75;;;;;;;29.86;37.46;99310.47;5234099;28;20307;-82
2022/08/29 12:46:25;;;;;;;4.63;3.40;;;;;;;30.08;36.26;99304.91;5242203;28;20514;-80
2022/08/29 12:49:37;;;;;;;9.38;3.75;;;;;;;29.63;35.77;99293.38;5226928;28;20064;-80
2022/08/29 12:52:34;;;;;;;6.82;3.92;;;;;;;29.80;35.34;99292.38;5250873;28;20414;-79
2022/08/29 12:55:42;;;;;;;6.20;3.40;;;;;;;29.76;36.35;99285.81;5246538;28;20573;-79
2022/08/29 12:58:59;;;;;;;7.10;3.60;;;;;;;28.89;36.14;99272.16;5246738;28;20067;-79
2022/08/29 13:01:52;;;;;;;8.60;3.55;;;;;;;29.25;36.18;99295.22;5260693;28;20063;-81
2022/08/29 13:04:44;;;;;;;7.03;4.05;;;;;;;29.59;35.56;99288.66;5260981;28;20213;-82
2022/08/29 13:07:35;;;;;;;6.28;3.88;;;;;;;29.29;35.67;99264.66;5248080;28;20131;-80
2022/08/29 13:10:26;;;;;;;7.65;3.42;;;;;;;29.54;36.88;99255.81;5228836;28;20051;-80
2022/08/29 13:13:20;;;;;;;8.15;3.80;;;;;;;29.76;36.23;99267.50;5246450;28;20044;-78
2022/08/29 13:16:26;;;;;;;5.78;3.75;;;;;;;29.36;35.26;99246.94;5246793;28;20131;-80
2022/08/29 13:19:19;;;;;;;6.38;3.63;;;;;;;29.09;35.29;99268.00;5227982;28;20063;-81
2022/08/29 13:22:12;;;;;;;7.50;4.05;;;;;;;29.48;36.40;99261.25;5245346;28;20620;-81
2022/08/29 13:25:04;;;;;;;6.60;4.13;;;;;;;29.69;35.81;99266.91;5261889;28;20190;-80
2022/08/29 13:27:56;;;;;;;6.00;3.72;;;;;;;29.60;36.26;99254.81;5250364;28;20063;-79
2022/08/29 13:31:05;;;;;;;5.38;3.67;;;;;;;29.65;34.98;99255.69;5250937;28;20059;-80
2022/08/29 13:33:55;;;;;;;8.38;3.83;;;;;;;29.54;35.41;99255.81;5268606;28;20055;-81
2022/08/29 13:36:49;;;;;;;6.28;4.07;;;;;;;29.70;35.35;99258.47;5246599;28;20061;-79
2022/08/29 13:39:44;;;;;;;9.27;4.10;;;;;;;29.53;36.01;99241.34;5245421;28;20579;-80
2022/08/29 13:42:43;;;;;;;6.57;3.50;;;;;;;30.10;35.28;99258.94;5247274;28;20079;-80
2022/08/29 13:45:34;;;;;;;7.72;4.30;;;;;;;30.01;35.13;99250.44;5245745;28;20156;-80